sensor_id;sensor_type;location;lat;lon;timestamp;pressure;altitude;pressure_sealevel;temperature;humidity
13407;BME280;6774;48.208;10.766;2023-01-23T00:02:38;96576.88;;;-0.87;81.52
13407;BME280;6774;48.208;10.766;2023-01-23T00:05:07;96567.53;;;-0.90;81.40
13407;BME280;6774;48.208;10.766;2023-01-23T00:07:35;96565.84;;;-0.91;81.22
13407;BME280;6774;48.208;10.766;2023-01-23T00:10:03;96571.59;;;-0.86;80.97
13407;BME280;6774;48.208;10.766;2023-01-23T00:12:31;96574.91;;;-0.83;81.23
13407;BME280;6774;48.208;10.766;2023-01-23T00:14:59;96584.34;;;-0.82;81.07
13407;BME280;6774;48.208;10.766;2023-01-23T00:17:27;96584.00;;;-0.76;81.19
13407;BME280;6774;48.208;10.766;2023-01-23T00:19:56;96588.06;;;-0.72;81.03
13407;BME280;6774;48.208;10.766;2023-01-23T00:22:25;96593.06;;;-0.69;81.46
13407;BME280;6774;48.208;10.766;2023-01-23T00:24:52;96599.00;;;-0.67;82.01
13407;BME280;6774;48.208;10.766;2023-01-23T00:27:20;96594.63;;;-0.67;81.71
13407;BME280;6774;48.208;10.766;2023-01-23T00:29:51;96592.78;;;-0.65;82.58
13407;BME280;6774;48.208;10.766;2023-01-23T00:32:19;96581.78;;;-0.68;82.32
13407;BME280;6774;48.208;10.766;2023-01-23T00:34:47;96588.63;;;-0.67;82.79
13407;BME280;6774;48.208;10.766;2023-01-23T00:37:16;96579.28;;;-0.70;83.29
13407;BME280;6774;48.208;10.766;2023-01-23T00:39:44;96585.66;;;-0.75;82.94
13407;BME280;6774;48.208;10.766;2023-01-23T00:42:12;96584.00;;;-0.76;83.73
13407;BME280;6774;48.208;10.766;2023-01-23T00:44:40;96584.91;;;-0.77;84.00
13407;BME280;6774;48.208;10.766;2023-01-23T00:47:08;96589.16;;;-0.76;83.86
13407;BME280;6774;48.208;10.766;2023-01-23T00:49:36;96587.88;;;-0.83;83.38
13407;BME280;6774;48.208;10.766;2023-01-23T00:52:04;96590.56;;;-0.85;83.79
13407;BME280;6774;48.208;10.766;2023-01-23T00:54:33;96595.63;;;-0.83;84.33
13407;BME280;6774;48.208;10.766;2023-01-23T00:57:04;96591.97;;;-0.79;84.04
13407;BME280;6774;48.208;10.766;2023-01-23T00:59:32;96595.38;;;-0.79;83.52
13407;BME280;6774;48.208;10.766;2023-01-23T01:01:59;96599.81;;;-0.81;83.43
13407;BME280;6774;48.208;10.766;2023-01-23T01:04:27;96600.09;;;-0.86;84.00
13407;BME280;6774;48.208;10.766;2023-01-23T01:06:55;96600.00;;;-0.84;83.61
13407;BME280;6774;48.208;10.766;2023-01-23T01:09:23;96605.06;;;-0.82;83.69
13407;BME280;6774;48.208;10.766;2023-01-23T01:11:52;96605.06;;;-0.82;83.68
13407;BME280;6774;48.208;10.766;2023-01-23T01:14:20;96599.88;;;-0.82;83.62
13407;BME280;6774;48.208;10.766;2023-01-23T01:16:48;96594.81;;;-0.84;84.09
13407;BME280;6774;48.208;10.766;2023-01-23T01:19:16;96593.03;;;-0.83;84.11
13407;BME280;6774;48.208;10.766;2023-01-23T01:21:44;96603.25;;;-0.80;84.24
13407;BME280;6774;48.208;10.766;2023-01-23T01:24:12;96596.22;;;-0.78;84.35
13407;BME280;6774;48.208;10.766;2023-01-23T01:26:41;96603.06;;;-0.77;84.32
13407;BME280;6774;48.208;10.766;2023-01-23T01:29:10;96604.72;;;-0.76;84.04
13407;BME280;6774;48.208;10.766;2023-01-23T01:31:37;96603.78;;;-0.75;83.83
13407;BME280;6774;48.208;10.766;2023-01-23T01:34:05;96595.19;;;-0.76;83.97
13407;BME280;6774;48.208;10.766;2023-01-23T01:36:33;96606.56;;;-0.78;84.00
13407;BME280;6774;48.208;10.766;2023-01-23T01:39:01;96610.09;;;-0.79;84.16
13407;BME280;6774;48.208;10.766;2023-01-23T01:41:29;96607.66;;;-0.82;83.96
13407;BME280;6774;48.208;10.766;2023-01-23T01:43:56;96605.00;;;-0.81;84.72
13407;BME280;6774;48.208;10.766;2023-01-23T01:46:29;96610.00;;;-0.78;84.20
13407;BME280;6774;48.208;10.766;2023-01-23T01:49:06;96606.22;;;-0.72;84.77
13407;BME280;6774;48.208;10.766;2023-01-23T01:51:36;96608.53;;;-0.68;84.52
13407;BME280;6774;48.208;10.766;2023-01-23T01:54:09;96602.16;;;-0.62;83.92
13407;BME280;6774;48.208;10.766;2023-01-23T01:56:42;96601.97;;;-0.59;84.37
13407;BME280;6774;48.208;10.766;2023-01-23T01:59:11;96602.59;;;-0.55;83.71
13407;BME280;6774;48.208;10.766;2023-01-23T02:01:44;96608.44;;;-0.52;83.93
13407;BME280;6774;48.208;10.766;2023-01-23T02:04:13;96613.78;;;-0.55;83.89
13407;BME280;6774;48.208;10.766;2023-01-23T02:06:42;96603.25;;;-0.52;84.06
13407;BME280;6774;48.208;10.766;2023-01-23T02:09:16;96617.06;;;-0.51;83.42
13407;BME280;6774;48.208;10.766;2023-01-23T02:11:47;96613.63;;;-0.52;83.93
13407;BME280;6774;48.208;10.766;2023-01-23T02:14:18;96596.22;;;-0.50;83.69
13407;BME280;6774;48.208;10.766;2023-01-23T02:16:49;96591.59;;;-0.59;84.10
13407;BME280;6774;48.208;10.766;2023-01-23T02:19:33;96598.78;;;-0.64;84.59
13407;BME280;6774;48.208;10.766;2023-01-23T02:22:12;96582.50;;;-0.66;84.75
13407;BME280;6774;48.208;10.766;2023-01-23T02:24:50;96580.94;;;-0.69;84.62
13407;BME280;6774;48.208;10.766;2023-01-23T02:27:22;96572.97;;;-0.66;85.27
13407;BME280;6774;48.208;10.766;2023-01-23T02:29:51;96562.69;;;-0.67;84.79
13407;BME280;6774;48.208;10.766;2023-01-23T02:32:24;96565.84;;;-0.62;84.89
13407;BME280;6774;48.208;10.766;2023-01-23T02:34:55;96578.81;;;-0.62;84.75
13407;BME280;6774;48.208;10.766;2023-01-23T02:37:25;96576.03;;;-0.59;84.00
13407;BME280;6774;48.208;10.766;2023-01-23T02:39:57;96571.59;;;-0.57;83.76
13407;BME280;6774;48.208;10.766;2023-01-23T02:42:30;96573.63;;;-0.62;83.42
13407;BME280;6774;48.208;10.766;2023-01-23T02:44:59;96568.56;;;-0.64;83.51
13407;BME280;6774;48.208;10.766;2023-01-23T02:47:26;96571.41;;;-0.68;83.38
13407;BME280;6774;48.208;10.766;2023-01-23T02:49:56;96572.03;;;-0.65;83.45
13407;BME280;6774;48.208;10.766;2023-01-23T02:52:24;96572.34;;;-0.69;83.63
13407;BME280;6774;48.208;10.766;2023-01-23T02:54:51;96564.75;;;-0.72;84.00
13407;BME280;6774;48.208;10.766;2023-01-23T02:57:20;96566.13;;;-0.81;83.36
13407;BME280;6774;48.208;10.766;2023-01-23T02:59:49;96567.06;;;-0.82;83.64
13407;BME280;6774;48.208;10.766;2023-01-23T03:02:34;96569.47;;;-0.79;83.83
13407;BME280;6774;48.208;10.766;2023-01-23T03:05:04;96567.59;;;-0.77;83.99
13407;BME280;6774;48.208;10.766;2023-01-23T03:07:33;96569.38;;;-0.77;83.72
13407;BME280;6774;48.208;10.766;2023-01-23T03:10:03;96575.66;;;-0.81;83.81
13407;BME280;6774;48.208;10.766;2023-01-23T03:12:31;96579.34;;;-0.86;84.27
13407;BME280;6774;48.208;10.766;2023-01-23T03:15:00;96579.94;;;-0.80;83.95
13407;BME280;6774;48.208;10.766;2023-01-23T03:17:33;96586.28;;;-0.86;84.21
13407;BME280;6774;48.208;10.766;2023-01-23T03:20:01;96588.25;;;-0.90;83.82
13407;BME280;6774;48.208;10.766;2023-01-23T03:22:31;96592.66;;;-0.92;83.85
13407;BME280;6774;48.208;10.766;2023-01-23T03:24:59;96596.94;;;-1.35;84.37
13407;BME280;6774;48.208;10.766;2023-01-23T03:27:27;96606.19;;;-1.61;86.64
13407;BME280;6774;48.208;10.766;2023-01-23T03:29:56;96609.06;;;-1.21;85.79
13407;BME280;6774;48.208;10.766;2023-01-23T03:32:40;96618.03;;;-0.97;84.53
13407;BME280;6774;48.208;10.766;2023-01-23T03:35:09;96615.97;;;-0.92;84.24
13407;BME280;6774;48.208;10.766;2023-01-23T03:37:41;96611.00;;;-0.95;84.09
13407;BME280;6774;48.208;10.766;2023-01-23T03:40:15;96611.00;;;-0.95;83.60
13407;BME280;6774;48.208;10.766;2023-01-23T03:43:02;96601.66;;;-0.97;83.63
13407;BME280;6774;48.208;10.766;2023-01-23T03:45:32;96594.50;;;-1.08;83.22
13407;BME280;6774;48.208;10.766;2023-01-23T03:48:01;96587.38;;;-1.04;83.03
13407;BME280;6774;48.208;10.766;2023-01-23T03:50:30;96594.22;;;-1.03;82.51
13407;BME280;6774;48.208;10.766;2023-01-23T03:52:57;96597.25;;;-1.11;82.69
13407;BME280;6774;48.208;10.766;2023-01-23T03:55:25;96591.63;;;-1.18;82.97
13407;BME280;6774;48.208;10.766;2023-01-23T03:57:53;96594.47;;;-1.22;82.48
13407;BME280;6774;48.208;10.766;2023-01-23T04:00:27;96597.78;;;-1.20;83.03
13407;BME280;6774;48.208;10.766;2023-01-23T04:02:59;96598.06;;;-1.25;83.32
13407;BME280;6774;48.208;10.766;2023-01-23T04:05:29;96594.47;;;-1.22;83.53
13407;BME280;6774;48.208;10.766;2023-01-23T04:07:58;96598.56;;;-1.18;83.72
13407;BME280;6774;48.208;10.766;2023-01-23T04:10:27;96590.41;;;-1.12;82.87
13407;BME280;6774;48.208;10.766;2023-01-23T04:13:02;96593.59;;;-1.07;83.34
13407;BME280;6774;48.208;10.766;2023-01-23T04:15:30;96592.47;;;-1.03;83.00
13407;BME280;6774;48.208;10.766;2023-01-23T04:18:01;96599.16;;;-0.99;83.22
13407;BME280;6774;48.208;10.766;2023-01-23T04:20:30;96598.97;;;-0.96;82.81
13407;BME280;6774;48.208;10.766;2023-01-23T04:22:58;96594.41;;;-0.92;82.89
13407;BME280;6774;48.208;10.766;2023-01-23T04:25:28;96598.63;;;-0.90;82.97
13407;BME280;6774;48.208;10.766;2023-01-23T04:27:56;96601.00;;;-0.87;83.38
13407;BME280;6774;48.208;10.766;2023-01-23T04:30:24;96595.94;;;-0.88;82.93
13407;BME280;6774;48.208;10.766;2023-01-23T04:32:52;96607.31;;;-0.91;83.21
13407;BME280;6774;48.208;10.766;2023-01-23T04:35:21;96609.91;;;-0.91;82.85
13407;BME280;6774;48.208;10.766;2023-01-23T04:37:52;96608.97;;;-0.90;83.11
13407;BME280;6774;48.208;10.766;2023-01-23T04:40:20;96603.13;;;-0.93;82.88
13407;BME280;6774;48.208;10.766;2023-01-23T04:42:52;96598.97;;;-0.96;83.63
13407;BME280;6774;48.208;10.766;2023-01-23T04:45:29;96608.31;;;-0.93;83.52
13407;BME280;6774;48.208;10.766;2023-01-23T04:48:17;96617.69;;;-0.91;83.04
13407;BME280;6774;48.208;10.766;2023-01-23T04:50:46;96623.50;;;-0.87;83.47
13407;BME280;6774;48.208;10.766;2023-01-23T04:53:16;96618.22;;;-0.86;82.95
13407;BME280;6774;48.208;10.766;2023-01-23T04:55:49;96625.25;;;-0.88;82.25
13407;BME280;6774;48.208;10.766;2023-01-23T04:58:18;96632.38;;;-0.91;83.07
13407;BME280;6774;48.208;10.766;2023-01-23T05:00:46;96626.34;;;-0.92;82.97
13407;BME280;6774;48.208;10.766;2023-01-23T05:03:17;96636.56;;;-0.89;82.61
13407;BME280;6774;48.208;10.766;2023-01-23T05:05:46;96636.72;;;-0.92;82.54
13407;BME280;6774;48.208;10.766;2023-01-23T05:08:15;96633.22;;;-0.91;82.90
13407;BME280;6774;48.208;10.766;2023-01-23T05:10:52;96636.56;;;-0.89;82.51
13407;BME280;6774;48.208;10.766;2023-01-23T05:13:21;96630.63;;;-0.91;83.40
13407;BME280;6774;48.208;10.766;2023-01-23T05:15:49;96628.03;;;-0.91;83.47
13407;BME280;6774;48.208;10.766;2023-01-23T05:18:17;96624.53;;;-0.90;83.43
13407;BME280;6774;48.208;10.766;2023-01-23T05:20:46;96623.41;;;-0.86;83.87
13407;BME280;6774;48.208;10.766;2023-01-23T05:23:15;96627.41;;;-0.80;84.09
13407;BME280;6774;48.208;10.766;2023-01-23T05:25:48;96627.50;;;-0.81;84.15
13407;BME280;6774;48.208;10.766;2023-01-23T05:28:16;96623.78;;;-0.77;83.73
13407;BME280;6774;48.208;10.766;2023-01-23T05:30:49;96626.13;;;-0.73;84.05
13407;BME280;6774;48.208;10.766;2023-01-23T05:33:23;96625.44;;;-0.76;84.03
13407;BME280;6774;48.208;10.766;2023-01-23T05:35:52;96620.25;;;-0.76;84.34
13407;BME280;6774;48.208;10.766;2023-01-23T05:38:21;96631.22;;;-0.71;83.72
13407;BME280;6774;48.208;10.766;2023-01-23T05:40:49;96624.38;;;-0.72;83.73
13407;BME280;6774;48.208;10.766;2023-01-23T05:43:36;96631.94;;;-0.69;84.13
13407;BME280;6774;48.208;10.766;2023-01-23T05:46:04;96640.47;;;-0.67;83.75
13407;BME280;6774;48.208;10.766;2023-01-23T05:48:47;96636.38;;;-0.57;83.67
13407;BME280;6774;48.208;10.766;2023-01-23T05:51:15;96649.63;;;-0.62;83.41
13407;BME280;6774;48.208;10.766;2023-01-23T05:53:45;96646.03;;;-0.59;83.58
13407;BME280;6774;48.208;10.766;2023-01-23T05:56:14;96649.72;;;-0.49;83.38
13407;BME280;6774;48.208;10.766;2023-01-23T05:59:01;96652.91;;;-0.44;82.90
13407;BME280;6774;48.208;10.766;2023-01-23T06:01:38;96656.56;;;-0.48;82.81
13407;BME280;6774;48.208;10.766;2023-01-23T06:04:25;96653.72;;;-0.43;82.64
13407;BME280;6774;48.208;10.766;2023-01-23T06:07:07;96660.00;;;-0.47;82.66
13407;BME280;6774;48.208;10.766;2023-01-23T06:09:40;96659.91;;;-0.46;83.07
13407;BME280;6774;48.208;10.766;2023-01-23T06:12:09;96666.94;;;-0.48;82.49
13407;BME280;6774;48.208;10.766;2023-01-23T06:14:37;96672.31;;;-0.51;82.92
13407;BME280;6774;48.208;10.766;2023-01-23T06:17:07;96669.44;;;-0.46;83.20
13407;BME280;6774;48.208;10.766;2023-01-23T06:19:34;96665.09;;;-0.46;82.96
13407;BME280;6774;48.208;10.766;2023-01-23T06:22:02;96668.16;;;-0.53;82.82
13407;BME280;6774;48.208;10.766;2023-01-23T06:24:41;96672.88;;;-0.60;83.58
13407;BME280;6774;48.208;10.766;2023-01-23T06:27:09;96671.03;;;-0.58;83.81
13407;BME280;6774;48.208;10.766;2023-01-23T06:29:37;96674.34;;;-0.56;83.75
13407;BME280;6774;48.208;10.766;2023-01-23T06:32:06;96670.91;;;-0.57;83.69
13407;BME280;6774;48.208;10.766;2023-01-23T06:34:34;96666.75;;;-0.59;83.80
13407;BME280;6774;48.208;10.766;2023-01-23T06:37:04;96672.31;;;-0.51;84.39
13407;BME280;6774;48.208;10.766;2023-01-23T06:39:32;96673.59;;;-0.58;83.46
13407;BME280;6774;48.208;10.766;2023-01-23T06:42:05;96672.53;;;-0.54;83.92
13407;BME280;6774;48.208;10.766;2023-01-23T06:44:41;96670.66;;;-0.52;84.22
13407;BME280;6774;48.208;10.766;2023-01-23T06:47:12;96679.91;;;-0.48;83.87
13407;BME280;6774;48.208;10.766;2023-01-23T06:49:42;96671.97;;;-0.45;84.54
13407;BME280;6774;48.208;10.766;2023-01-23T06:52:10;96666.13;;;-0.48;83.69
13407;BME280;6774;48.208;10.766;2023-01-23T06:54:40;96667.16;;;-0.51;84.57
13407;BME280;6774;48.208;10.766;2023-01-23T06:57:10;96671.97;;;-0.45;84.35
13407;BME280;6774;48.208;10.766;2023-01-23T06:59:39;96669.09;;;-0.40;84.11
13407;BME280;6774;48.208;10.766;2023-01-23T07:02:09;96671.78;;;-0.42;84.26
13407;BME280;6774;48.208;10.766;2023-01-23T07:04:46;96686.84;;;-0.48;83.88
13407;BME280;6774;48.208;10.766;2023-01-23T07:07:14;96680.50;;;-0.43;83.83
13407;BME280;6774;48.208;10.766;2023-01-23T07:09:42;96680.09;;;-0.37;83.72
13407;BME280;6774;48.208;10.766;2023-01-23T07:12:25;96677.25;;;-0.32;83.46
13407;BME280;6774;48.208;10.766;2023-01-23T07:14:52;96681.13;;;-0.39;83.44
13407;BME280;6774;48.208;10.766;2023-01-23T07:17:25;96676.22;;;-0.44;83.81
13407;BME280;6774;48.208;10.766;2023-01-23T07:19:54;96685.66;;;-0.43;83.71
13407;BME280;6774;48.208;10.766;2023-01-23T07:22:23;96680.09;;;-0.37;84.07
13407;BME280;6774;48.208;10.766;2023-01-23T07:24:51;96664.53;;;-0.37;83.67
13407;BME280;6774;48.208;10.766;2023-01-23T07:27:19;96668.19;;;-0.25;84.07
13407;BME280;6774;48.208;10.766;2023-01-23T07:29:48;96667.50;;;-0.29;83.54
13407;BME280;6774;48.208;10.766;2023-01-23T07:32:16;96662.53;;;-0.32;83.70
13407;BME280;6774;48.208;10.766;2023-01-23T07:34:44;96664.84;;;-0.27;83.74
13407;BME280;6774;48.208;10.766;2023-01-23T07:37:12;96667.88;;;-0.20;84.25
13407;BME280;6774;48.208;10.766;2023-01-23T07:39:40;96673.72;;;-0.17;83.71
13407;BME280;6774;48.208;10.766;2023-01-23T07:42:08;96684.84;;;-0.15;84.19
13407;BME280;6774;48.208;10.766;2023-01-23T07:44:40;96670.75;;;-0.11;83.69
13407;BME280;6774;48.208;10.766;2023-01-23T07:47:09;96692.81;;;-0.04;83.41
13407;BME280;6774;48.208;10.766;2023-01-23T07:49:37;96694.94;;;0.04;83.35
13407;BME280;6774;48.208;10.766;2023-01-23T07:52:05;96694.47;;;-0.03;83.46
13407;BME280;6774;48.208;10.766;2023-01-23T07:54:32;96698.66;;;0.00;83.41
13407;BME280;6774;48.208;10.766;2023-01-23T07:57:00;96696.69;;;-0.11;83.54
13407;BME280;6774;48.208;10.766;2023-01-23T07:59:28;96691.50;;;0.04;83.55
13407;BME280;6774;48.208;10.766;2023-01-23T08:01:56;96687.72;;;0.09;84.28
13407;BME280;6774;48.208;10.766;2023-01-23T08:04:25;96681.03;;;0.05;83.63
13407;BME280;6774;48.208;10.766;2023-01-23T08:06:53;96678.59;;;0.16;83.48
13407;BME280;6774;48.208;10.766;2023-01-23T08:09:21;96681.50;;;0.12;84.29
13407;BME280;6774;48.208;10.766;2023-01-23T08:11:50;96694.38;;;0.13;84.10
13407;BME280;6774;48.208;10.766;2023-01-23T08:14:17;96692.88;;;0.23;83.55
13407;BME280;6774;48.208;10.766;2023-01-23T08:16:47;96693.81;;;0.22;83.76
13407;BME280;6774;48.208;10.766;2023-01-23T08:19:16;96703.97;;;0.25;83.16
13407;BME280;6774;48.208;10.766;2023-01-23T08:21:45;96707.66;;;0.36;82.88
13407;BME280;6774;48.208;10.766;2023-01-23T08:24:13;96703.63;;;0.32;83.97
13407;BME280;6774;48.208;10.766;2023-01-23T08:26:42;96698.84;;;0.52;82.71
13407;BME280;6774;48.208;10.766;2023-01-23T08:29:10;96697.56;;;0.72;82.48
13407;BME280;6774;48.208;10.766;2023-01-23T08:31:38;96693.59;;;0.67;82.20
13407;BME280;6774;48.208;10.766;2023-01-23T08:34:06;96697.78;;;0.69;82.29
13407;BME280;6774;48.208;10.766;2023-01-23T08:36:34;96693.19;;;0.73;82.39
13407;BME280;6774;48.208;10.766;2023-01-23T08:39:03;96697.91;;;0.80;82.16
13407;BME280;6774;48.208;10.766;2023-01-23T08:41:31;96699.41;;;0.84;82.30
13407;BME280;6774;48.208;10.766;2023-01-23T08:43:58;96679.88;;;0.92;81.56
13407;BME280;6774;48.208;10.766;2023-01-23T08:46:27;96698.25;;;0.89;81.58
13407;BME280;6774;48.208;10.766;2023-01-23T08:48:55;96696.00;;;0.97;81.52
13407;BME280;6774;48.208;10.766;2023-01-23T08:51:22;96683.13;;;1.08;80.95
13407;BME280;6774;48.208;10.766;2023-01-23T08:53:51;96696.00;;;0.97;80.70
13407;BME280;6774;48.208;10.766;2023-01-23T08:56:22;96688.91;;;0.86;80.98
13407;BME280;6774;48.208;10.766;2023-01-23T08:58:50;96687.81;;;0.76;81.34
13407;BME280;6774;48.208;10.766;2023-01-23T09:01:19;96693.59;;;0.67;81.65
13407;BME280;6774;48.208;10.766;2023-01-23T09:03:48;96702.38;;;0.78;81.50
13407;BME280;6774;48.208;10.766;2023-01-23T09:06:17;96698.16;;;0.63;82.41
13407;BME280;6774;48.208;10.766;2023-01-23T09:08:46;96692.94;;;0.63;82.14
13407;BME280;6774;48.208;10.766;2023-01-23T09:11:15;96697.56;;;0.72;82.56
13407;BME280;6774;48.208;10.766;2023-01-23T09:13:45;96699.25;;;0.73;82.07
13407;BME280;6774;48.208;10.766;2023-01-23T09:16:14;96697.78;;;0.69;82.64
13407;BME280;6774;48.208;10.766;2023-01-23T09:18:42;96695.53;;;0.77;82.47
13407;BME280;6774;48.208;10.766;2023-01-23T09:21:13;96701.16;;;0.84;82.29
13407;BME280;6774;48.208;10.766;2023-01-23T09:23:43;96706.38;;;0.97;82.03
13407;BME280;6774;48.208;10.766;2023-01-23T09:26:12;96715.31;;;0.93;82.01
13407;BME280;6774;48.208;10.766;2023-01-23T09:28:41;96713.69;;;1.04;80.83
13407;BME280;6774;48.208;10.766;2023-01-23T09:31:12;96726.78;;;1.03;81.43
13407;BME280;6774;48.208;10.766;2023-01-23T09:33:40;96718.06;;;1.04;80.97
13407;BME280;6774;48.208;10.766;2023-01-23T09:36:08;96722.22;;;1.06;81.82
13407;BME280;6774;48.208;10.766;2023-01-23T09:38:37;96711.66;;;1.22;80.85
13407;BME280;6774;48.208;10.766;2023-01-23T09:41:12;96716.03;;;1.34;81.32
13407;BME280;6774;48.208;10.766;2023-01-23T09:43:48;96712.13;;;1.41;81.33
13407;BME280;6774;48.208;10.766;2023-01-23T09:46:23;96704.41;;;1.53;80.58
13407;BME280;6774;48.208;10.766;2023-01-23T09:48:57;96707.44;;;1.47;80.96
13407;BME280;6774;48.208;10.766;2023-01-23T09:51:31;96708.28;;;1.60;79.83
13407;BME280;6774;48.208;10.766;2023-01-23T09:54:13;96705.59;;;1.74;79.90
13407;BME280;6774;48.208;10.766;2023-01-23T09:56:44;96710.19;;;1.83;79.95
13407;BME280;6774;48.208;10.766;2023-01-23T09:59:16;96703.59;;;1.78;79.86
13407;BME280;6774;48.208;10.766;2023-01-23T10:01:52;96713.63;;;1.84;79.00
13407;BME280;6774;48.208;10.766;2023-01-23T10:04:20;96698.38;;;1.90;78.71
13407;BME280;6774;48.208;10.766;2023-01-23T10:07:07;96695.16;;;1.99;79.32
13407;BME280;6774;48.208;10.766;2023-01-23T10:09:47;96684.63;;;2.01;78.90
13407;BME280;6774;48.208;10.766;2023-01-23T10:12:27;96682.34;;;2.09;78.68
13407;BME280;6774;48.208;10.766;2023-01-23T10:15:24;96680.47;;;1.98;78.73
13407;BME280;6774;48.208;10.766;2023-01-23T10:18:03;96679.16;;;1.93;78.83
13407;BME280;6774;48.208;10.766;2023-01-23T10:20:45;96682.25;;;1.98;78.65
13407;BME280;6774;48.208;10.766;2023-01-23T10:23:27;96676.72;;;1.90;79.17
13407;BME280;6774;48.208;10.766;2023-01-23T10:26:01;96675.78;;;1.91;78.36
13407;BME280;6774;48.208;10.766;2023-01-23T10:28:32;96666.94;;;2.06;78.87
13407;BME280;6774;48.208;10.766;2023-01-23T10:31:07;96653.59;;;2.11;78.48
13407;BME280;6774;48.208;10.766;2023-01-23T10:33:45;96645.28;;;2.06;77.86
13407;BME280;6774;48.208;10.766;2023-01-23T10:36:21;96635.94;;;2.27;78.63
13407;BME280;6774;48.208;10.766;2023-01-23T10:38:56;96638.34;;;2.30;77.12
13407;BME280;6774;48.208;10.766;2023-01-23T10:41:26;96646.16;;;2.30;77.32
13407;BME280;6774;48.208;10.766;2023-01-23T10:43:55;96650.13;;;2.23;77.30
13407;BME280;6774;48.208;10.766;2023-01-23T10:46:28;96654.25;;;2.02;77.57
13407;BME280;6774;48.208;10.766;2023-01-23T10:48:59;96650.50;;;1.93;78.48
13407;BME280;6774;48.208;10.766;2023-01-23T10:51:34;96651.13;;;1.96;78.96
13407;BME280;6774;48.208;10.766;2023-01-23T10:54:09;96657.19;;;1.84;79.07
13407;BME280;6774;48.208;10.766;2023-01-23T10:56:54;96653.84;;;1.82;78.44
13407;BME280;6774;48.208;10.766;2023-01-23T10:59:32;96654.47;;;1.86;79.18
13407;BME280;6774;48.208;10.766;2023-01-23T11:02:28;96645.50;;;2.03;79.11
13407;BME280;6774;48.208;10.766;2023-01-23T11:04:58;96643.38;;;2.08;78.43
13407;BME280;6774;48.208;10.766;2023-01-23T11:07:28;96643.09;;;2.12;77.80
13407;BME280;6774;48.208;10.766;2023-01-23T11:09:58;96640.19;;;2.04;77.82
13407;BME280;6774;48.208;10.766;2023-01-23T11:12:28;96635.50;;;1.96;78.44
13407;BME280;6774;48.208;10.766;2023-01-23T11:15:12;96632.16;;;2.07;78.03
13407;BME280;6774;48.208;10.766;2023-01-23T11:17:40;96623.00;;;2.02;78.53
13407;BME280;6774;48.208;10.766;2023-01-23T11:20:23;96618.22;;;1.95;78.71
13407;BME280;6774;48.208;10.766;2023-01-23T11:23:03;96609.78;;;2.05;79.05
13407;BME280;6774;48.208;10.766;2023-01-23T11:25:34;96598.41;;;2.06;78.10
13407;BME280;6774;48.208;10.766;2023-01-23T11:28:17;96603.69;;;2.17;77.78
13407;BME280;6774;48.208;10.766;2023-01-23T11:30:47;96595.69;;;2.07;77.82
13407;BME280;6774;48.208;10.766;2023-01-23T11:33:39;96602.97;;;2.15;77.62
13407;BME280;6774;48.208;10.766;2023-01-23T11:36:40;96590.66;;;2.17;77.71
13407;BME280;6774;48.208;10.766;2023-01-23T11:39:17;96601.09;;;2.17;77.52
13407;BME280;6774;48.208;10.766;2023-01-23T11:41:47;96600.47;;;2.13;77.95
13407;BME280;6774;48.208;10.766;2023-01-23T11:44:16;96597.47;;;2.07;79.00
13407;BME280;6774;48.208;10.766;2023-01-23T11:47:04;96584.03;;;2.13;78.72
13407;BME280;6774;48.208;10.766;2023-01-23T11:49:54;96584.03;;;2.13;78.61
13407;BME280;6774;48.208;10.766;2023-01-23T11:52:37;96583.03;;;2.03;78.77
13407;BME280;6774;48.208;10.766;2023-01-23T11:55:19;96580.91;;;2.08;78.58
13407;BME280;6774;48.208;10.766;2023-01-23T11:58:02;96581.91;;;2.18;78.46
13407;BME280;6774;48.208;10.766;2023-01-23T12:00:38;96577.75;;;2.15;78.87
13407;BME280;6774;48.208;10.766;2023-01-23T12:03:25;96578.09;;;2.11;79.02
13407;BME280;6774;48.208;10.766;2023-01-23T12:06:07;96583.63;;;2.06;79.31
13407;BME280;6774;48.208;10.766;2023-01-23T12:09:04;96587.06;;;2.07;79.33
13407;BME280;6774;48.208;10.766;2023-01-23T12:11:41;96590.50;;;2.07;78.30
13407;BME280;6774;48.208;10.766;2023-01-23T12:14:15;96583.03;;;2.03;78.70
13407;BME280;6774;48.208;10.766;2023-01-23T12:16:55;96575.28;;;2.01;79.67
13407;BME280;6774;48.208;10.766;2023-01-23T12:19:35;96583.03;;;2.03;78.98
13407;BME280;6774;48.208;10.766;2023-01-23T12:22:09;96573.09;;;2.08;79.49
13407;BME280;6774;48.208;10.766;2023-01-23T12:24:54;96574.03;;;2.07;80.04
13407;BME280;6774;48.208;10.766;2023-01-23T12:27:34;96564.13;;;2.12;79.42
13407;BME280;6774;48.208;10.766;2023-01-23T12:30:21;96567.19;;;2.06;79.46
13407;BME280;6774;48.208;10.766;2023-01-23T12:32:59;96562.19;;;2.03;79.73
13407;BME280;6774;48.208;10.766;2023-01-23T12:35:34;96564.34;;;2.09;79.50
13407;BME280;6774;48.208;10.766;2023-01-23T12:38:20;96557.44;;;2.20;79.95
13407;BME280;6774;48.208;10.766;2023-01-23T12:41:05;96550.00;;;2.27;79.54
13407;BME280;6774;48.208;10.766;2023-01-23T12:43:37;96563.31;;;2.35;79.58
13407;BME280;6774;48.208;10.766;2023-01-23T12:46:11;96545.75;;;2.50;79.53
13407;BME280;6774;48.208;10.766;2023-01-23T12:48:44;96554.53;;;2.60;78.82
13407;BME280;6774;48.208;10.766;2023-01-23T12:51:19;96551.13;;;2.71;78.45
13407;BME280;6774;48.208;10.766;2023-01-23T12:53:51;96561.31;;;2.74;78.87
13407;BME280;6774;48.208;10.766;2023-01-23T12:56:26;96553.00;;;2.58;78.79
13407;BME280;6774;48.208;10.766;2023-01-23T12:59:04;96558.22;;;2.58;79.27
13407;BME280;6774;48.208;10.766;2023-01-23T13:01:45;96544.22;;;2.59;79.82
13407;BME280;6774;48.208;10.766;2023-01-23T13:04:41;96549.22;;;2.62;79.73
13407;BME280;6774;48.208;10.766;2023-01-23T13:07:36;96548.88;;;2.66;78.70
13407;BME280;6774;48.208;10.766;2023-01-23T13:10:44;96543.06;;;2.74;79.35
13407;BME280;6774;48.208;10.766;2023-01-23T13:13:39;96531.97;;;2.83;79.16
13407;BME280;6774;48.208;10.766;2023-01-23T13:16:11;96542.38;;;2.83;78.91
13407;BME280;6774;48.208;10.766;2023-01-23T13:18:51;96534.09;;;2.78;79.07
13407;BME280;6774;48.208;10.766;2023-01-23T13:21:38;96535.63;;;2.69;78.66
13407;BME280;6774;48.208;10.766;2023-01-23T13:24:29;96541.16;;;2.65;79.17
13407;BME280;6774;48.208;10.766;2023-01-23T13:27:36;96541.13;;;2.53;79.13
13407;BME280;6774;48.208;10.766;2023-01-23T13:30:38;96535.63;;;2.45;80.10
13407;BME280;6774;48.208;10.766;2023-01-23T13:36:26;96533.78;;;2.47;80.59
13407;BME280;6774;48.208;10.766;2023-01-23T13:41:47;96540.13;;;2.43;80.09